Time;durP1;ratioP1;P1;durP2;ratioP2;P2;SDS_P1;SDS_P2;PMS_P1;PMS_P2;Temp;Humidity;BMP_temperature;BMP_pressure;BME280_temperature;BME280_humidity;BME280_pressure;Samples;Min_cycle;Max_cycle;Signal;HPM_P1;HPM_P2
2024/01/03 00:00:38;;;;;;;33.40;18.62;;;;;;;2.97;100.00;98565.33;1639520;86;25574;-55
2024/01/03 00:03:07;;;;;;;35.30;18.35;;;;;;;2.97;100.00;98566.67;1614687;87;25545;-53
2024/01/03 00:05:41;;;;;;;38.83;18.90;;;;;;;2.96;100.00;98562.44;1662913;86;27370;-55
2024/01/03 00:08:15;;;;;;;37.25;19.48;;;;;;;2.95;100.00;98553.39;1614573;87;25539;-51
2024/01/03 00:10:48;;;;;;;33.38;18.77;;;;;;;2.95;100.00;98554.72;1662936;86;25425;-55
2024/01/03 00:13:41;;;;;;;37.60;18.20;;;;;;;2.93;100.00;98544.34;1632434;87;25671;-54
2024/01/03 00:16:20;;;;;;;38.90;19.92;;;;;;;2.93;100.00;98547.00;1644436;87;25449;-51
2024/01/03 00:18:57;;;;;;;35.75;19.87;;;;;;;2.93;100.00;98551.56;1663120;85;27285;-52
2024/01/03 00:21:27;;;;;;;33.90;19.30;;;;;;;2.92;100.00;98547.30;1636730;87;25459;-52
2024/01/03 00:24:10;;;;;;;34.53;19.60;;;;;;;2.90;100.00;98544.93;1662145;84;25490;-55
2024/01/03 00:26:40;;;;;;;31.80;18.77;;;;;;;2.87;100.00;98544.19;1690519;84;25616;-54
2024/01/03 00:29:20;;;;;;;32.60;18.73;;;;;;;2.86;100.00;98543.15;1690520;84;25467;-56
2024/01/03 00:31:47;;;;;;;34.20;18.62;;;;;;;2.87;100.00;98536.18;1688797;84;27368;-54
2024/01/03 00:34:30;;;;;;;32.35;19.87;;;;;;;2.85;100.00;98527.69;1690442;84;25577;-53
2024/01/03 00:36:57;;;;;;;33.53;20.65;;;;;;;2.85;100.00;98529.02;1668406;84;25436;-54
2024/01/03 00:39:28;;;;;;;34.03;20.05;;;;;;;2.83;100.00;98516.52;1668303;84;25624;-54
2024/01/03 00:41:54;;;;;;;38.02;21.95;;;;;;;2.84;100.00;98512.73;1665887;84;25473;-54
2024/01/03 00:44:21;;;;;;;35.08;20.75;;;;;;;2.82;100.00;98508.80;1690514;84;27352;-51
2024/01/03 00:46:47;;;;;;;36.95;19.90;;;;;;;2.83;100.00;98505.84;1690431;84;25412;-54
2024/01/03 00:49:15;;;;;;;34.80;21.00;;;;;;;2.82;100.00;98497.56;1690522;84;25511;-55
2024/01/03 00:51:48;;;;;;;37.15;20.80;;;;;;;2.82;100.00;98496.23;1690497;84;25719;-51
2024/01/03 00:54:19;;;;;;;37.23;20.48;;;;;;;2.82;100.00;98495.45;1668530;84;25495;-52
2024/01/03 00:56:47;;;;;;;32.05;19.52;;;;;;;2.83;100.00;98490.34;1668452;84;27292;-53
2024/01/03 00:59:15;;;;;;;35.25;20.55;;;;;;;2.86;100.00;98481.73;1690414;84;25415;-52
2024/01/03 01:01:43;;;;;;;33.65;21.27;;;;;;;2.86;100.00;98474.53;1690429;84;25428;-54
2024/01/03 01:04:10;;;;;;;38.23;20.25;;;;;;;2.89;100.00;98474.45;1668276;84;25579;-53
2024/01/03 01:06:37;;;;;;;32.55;19.20;;;;;;;2.87;100.00;98468.63;1675970;85;25550;-52
2024/01/03 01:09:04;;;;;;;35.88;20.27;;;;;;;2.86;100.00;98462.52;1692731;84;27376;-53
2024/01/03 01:11:30;;;;;;;33.33;19.60;;;;;;;2.87;100.00;98456.61;1675869;85;25707;-52
2024/01/03 01:13:57;;;;;;;34.75;21.33;;;;;;;2.86;100.00;98460.37;1670858;84;25476;-52
2024/01/03 01:16:23;;;;;;;34.33;19.85;;;;;;;2.85;100.00;98450.24;1647032;87;26249;-55
2024/01/03 01:18:49;;;;;;;38.28;21.23;;;;;;;2.84;100.00;98445.98;1692767;84;25451;-52
2024/01/03 01:21:16;;;;;;;36.33;20.15;;;;;;;2.85;100.00;98438.78;1647079;87;27442;-53
2024/01/03 01:23:42;;;;;;;36.28;19.77;;;;;;;2.84;100.00;98430.52;1638346;87;25509;-53
2024/01/03 01:26:09;;;;;;;31.68;19.48;;;;;;;2.83;100.00;98424.91;1632356;87;25464;-52
2024/01/03 01:28:35;;;;;;;34.48;19.45;;;;;;;2.82;100.00;98418.80;1660647;85;25515;-54
2024/01/03 01:31:02;;;;;;;37.17;20.10;;;;;;;2.82;100.00;98416.13;1660676;86;25467;-52
2024/01/03 01:33:28;;;;;;;32.40;19.12;;;;;;;2.82;100.00;98410.78;1624029;86;26843;-52
2024/01/03 01:35:54;;;;;;;34.10;19.80;;;;;;;2.83;100.00;98404.36;1669767;85;25500;-52
2024/01/03 01:38:21;;;;;;;32.42;19.50;;;;;;;2.85;100.00;98402.17;1670322;85;25533;-55
2024/01/03 01:40:49;;;;;;;34.27;19.82;;;;;;;2.86;100.00;98395.75;1670260;85;26361;-54
2024/01/03 01:43:16;;;;;;;33.28;18.45;;;;;;;2.87;100.00;98392.52;1670353;85;25430;-52
2024/01/03 01:45:42;;;;;;;33.35;18.50;;;;;;;2.86;100.00;98389.08;1670312;85;28227;-52
2024/01/03 01:48:09;;;;;;;34.78;19.75;;;;;;;2.86;100.00;98382.40;1670240;85;25440;-55
2024/01/03 01:50:39;;;;;;;32.80;18.77;;;;;;;2.84;100.00;98375.22;1670319;85;25430;-54
2024/01/03 01:53:07;;;;;;;;;;;;;;;2.83;100.00;98370.17;1672759;85;25629;-53
2024/01/03 01:55:37;;;;;;;37.45;18.50;;;;;;;2.82;100.00;98365.95;1643348;85;25506;-55
2024/01/03 01:58:05;;;;;;;34.03;18.65;;;;;;;2.78;100.00;98361.77;1643119;85;28010;-56
2024/01/03 02:00:31;;;;;;;31.25;18.23;;;;;;;2.78;100.00;98359.09;1670210;85;25601;-53
2024/01/03 02:02:58;;;;;;;36.15;18.52;;;;;;;2.77;100.00;98359.62;1670274;85;25448;-52
2024/01/03 02:05:24;;;;;;;34.53;18.85;;;;;;;2.78;100.00;98357.20;1670272;85;25687;-52
2024/01/03 02:07:51;;;;;;;36.05;19.00;;;;;;;2.78;100.00;98361.20;1670316;85;25503;-56
2024/01/03 02:10:17;;;;;;;31.65;18.87;;;;;;;2.78;100.00;98357.76;1670301;85;27400;-53
2024/01/03 02:12:43;;;;;;;31.17;18.65;;;;;;;2.78;100.00;98351.08;1670181;85;25424;-53
2024/01/03 02:15:10;;;;;;;30.92;17.95;;;;;;;2.78;100.00;98352.42;1617299;87;25487;-52
2024/01/03 02:17:38;;;;;;;34.98;19.23;;;;;;;2.78;100.00;98344.41;1643140;85;25717;-52
2024/01/03 02:20:06;;;;;;;31.57;17.67;;;;;;;2.78;100.00;98340.41;1621557;85;25444;-56
2024/01/03 02:22:32;;;;;;;30.70;19.55;;;;;;;2.79;100.00;98336.62;1670280;85;28105;-54
2024/01/03 02:24:59;;;;;;;34.50;19.80;;;;;;;2.79;100.00;98331.28;1687384;85;25424;-52
2024/01/03 02:27:26;;;;;;;33.83;20.50;;;;;;;2.79;100.00;98326.75;1664027;85;25493;-54
2024/01/03 02:29:52;;;;;;;34.80;19.50;;;;;;;2.82;100.00;98317.33;1687411;85;25632;-53
2024/01/03 02:32:19;;;;;;;33.70;18.77;;;;;;;2.84;100.00;98319.69;1663821;85;25444;-53
2024/01/03 02:34:46;;;;;;;32.35;19.80;;;;;;;2.84;100.00;98319.69;1598630;87;27991;-55
2024/01/03 02:37:13;;;;;;;34.18;19.48;;;;;;;2.85;100.00;98315.39;1644387;87;25450;-54
2024/01/03 02:39:39;;;;;;;31.85;18.55;;;;;;;2.86;100.00;98315.64;1626162;85;25506;-53
2024/01/03 02:42:06;;;;;;;30.65;19.60;;;;;;;2.88;100.00;98306.77;1673144;85;25634;-55
2024/01/03 02:44:32;;;;;;;29.30;17.82;;;;;;;2.87;100.00;98307.85;1673243;85;25455;-52
2024/01/03 02:46:58;;;;;;;37.15;19.32;;;;;;;2.89;100.00;98308.88;1692184;84;28030;-53
2024/01/03 02:49:25;;;;;;;29.05;18.20;;;;;;;2.89;100.00;98306.99;1692093;84;25388;-54
2024/01/03 02:51:51;;;;;;;34.60;20.50;;;;;;;2.90;100.00;98305.91;1628663;86;25461;-55
2024/01/03 02:54:17;;;;;;;30.85;18.75;;;;;;;2.89;100.00;98298.20;1687420;85;25640;-54
2024/01/03 02:56:44;;;;;;;28.98;18.15;;;;;;;2.89;100.00;98293.64;1687484;85;25392;-52
2024/01/03 02:59:10;;;;;;;26.60;16.37;;;;;;;2.89;100.00;98282.95;1687440;85;27288;-52
2024/01/03 03:01:36;;;;;;;27.32;17.87;;;;;;;2.89;100.00;98278.17;1687316;85;25701;-52
2024/01/03 03:04:03;;;;;;;33.20;18.48;;;;;;;2.89;100.00;98276.84;1641245;85;25536;-52
2024/01/03 03:06:29;;;;;;;32.03;18.20;;;;;;;2.88;100.00;98275.25;1641065;85;25628;-55
2024/01/03 03:08:55;;;;;;;29.00;17.80;;;;;;;2.87;100.00;98279.81;1641295;85;25473;-53
2024/01/03 03:11:22;;;;;;;29.45;17.12;;;;;;;2.87;100.00;98273.69;1687441;85;27460;-55
2024/01/03 03:13:48;;;;;;;29.90;17.50;;;;;;;2.87;100.00;98269.13;1687321;85;25504;-55
2024/01/03 03:16:14;;;;;;;29.95;16.75;;;;;;;2.89;100.00;98262.15;1687457;84;25512;-53
2024/01/03 03:18:40;;;;;;;27.37;15.45;;;;;;;2.87;100.00;98255.78;1691567;84;26186;-52
2024/01/03 03:21:09;;;;;;;28.30;16.42;;;;;;;2.86;100.00;98250.22;1645736;84;25489;-54
2024/01/03 03:23:36;;;;;;;26.12;15.18;;;;;;;2.87;100.00;98246.98;1692155;84;27617;-51
2024/01/03 03:26:03;;;;;;;24.95;15.03;;;;;;;2.87;100.00;98244.31;1692217;84;25407;-52
2024/01/03 03:28:31;;;;;;;26.27;15.98;;;;;;;2.86;100.00;98246.21;1668396;84;25530;-52
2024/01/03 03:30:58;;;;;;;26.82;15.48;;;;;;;2.87;100.00;98245.66;1692267;84;25501;-54
2024/01/03 03:33:24;;;;;;;23.83;14.43;;;;;;;2.88;100.00;98231.19;1692346;84;25437;-54
2024/01/03 03:35:51;;;;;;;24.12;15.30;;;;;;;2.87;100.00;98233.08;1692317;84;27907;-55
2024/01/03 03:38:18;;;;;;;27.67;14.85;;;;;;;2.88;100.00;98231.19;1692229;84;25465;-54
2024/01/03 03:40:44;;;;;;;23.42;15.03;;;;;;;2.87;100.00;98222.95;1692277;84;25486;-53
2024/01/03 03:43:10;;;;;;;25.25;15.00;;;;;;;2.86;100.00;98227.52;1692264;84;25701;-51
2024/01/03 03:45:36;;;;;;;27.52;16.12;;;;;;;2.86;100.00;98224.04;1692333;84;25452;-51
2024/01/03 03:48:04;;;;;;;26.25;16.45;;;;;;;2.86;100.00;98222.17;1692282;84;27378;-51
2024/01/03 03:50:31;;;;;;;25.80;14.78;;;;;;;2.87;100.00;98209.05;1692217;84;25554;-51
2024/01/03 03:52:57;;;;;;;25.75;15.60;;;;;;;2.88;100.00;98208.48;1692289;84;25522;-51
2024/01/03 03:55:25;;;;;;;24.52;15.23;;;;;;;2.89;100.00;98203.41;1692257;84;26261;-52
2024/01/03 03:57:52;;;;;;;25.45;15.40;;;;;;;2.89;100.00;98200.73;1692309;84;25434;-53
2024/01/03 04:00:19;;;;;;;26.23;15.43;;;;;;;2.89;100.00;98202.06;1692289;84;27841;-54
2024/01/03 04:02:45;;;;;;;25.82;15.18;;;;;;;2.88;100.00;98188.47;1692181;84;25426;-53
2024/01/03 04:05:12;;;;;;;26.33;16.17;;;;;;;2.87;100.00;98186.91;1692279;84;25469;-55
2024/01/03 04:07:39;;;;;;;25.23;15.35;;;;;;;2.88;100.00;98193.80;1692257;84;26340;-51
2024/01/03 04:10:07;;;;;;;23.73;14.75;;;;;;;2.87;100.00;98185.02;1691777;84;25455;-53
2024/01/03 04:12:37;;;;;;;27.20;15.93;;;;;;;2.86;100.00;98180.79;1692257;84;27589;-51
2024/01/03 04:15:02;;;;;;;25.70;14.87;;;;;;;2.86;100.00;98180.79;1691984;84;25924;-51
2024/01/03 04:17:28;;;;;;;27.58;16.05;;;;;;;2.86;100.00;98172.78;1692271;84;25523;-52
2024/01/03 04:19:55;;;;;;;26.02;15.13;;;;;;;2.86;100.00;98170.63;1692238;84;26168;-52
2024/01/03 04:22:22;;;;;;;25.80;15.95;;;;;;;2.85;100.00;98161.07;1692246;84;25445;-52
2024/01/03 04:24:48;;;;;;;23.38;14.45;;;;;;;2.85;100.00;98163.19;1690365;84;27355;-51
2024/01/03 04:27:15;;;;;;;23.57;14.90;;;;;;;2.85;100.00;98151.72;1689472;84;25441;-51
2024/01/03 04:29:41;;;;;;;28.02;14.65;;;;;;;2.85;100.00;98153.06;1617463;87;25546;-51
2024/01/03 04:32:07;;;;;;;28.42;15.15;;;;;;;2.86;100.00;98150.61;1689495;85;25595;-53
2024/01/03 04:34:36;;;;;;;22.37;14.83;;;;;;;2.86;100.00;98142.07;1689515;85;25430;-52
2024/01/03 04:37:03;;;;;;;26.45;15.83;;;;;;;2.86;100.00;98146.08;1689421;84;27454;-52
2024/01/03 04:39:30;;;;;;;25.25;15.48;;;;;;;2.87;100.00;98136.95;1689418;85;25442;-51
2024/01/03 04:41:56;;;;;;;25.92;15.88;;;;;;;2.88;100.00;98137.73;1689483;85;25559;-51
2024/01/03 04:44:22;;;;;;;26.80;15.75;;;;;;;2.90;100.00;98136.34;1689493;85;25609;-51
2024/01/03 04:46:49;;;;;;;22.52;14.68;;;;;;;2.91;100.00;98139.78;1689526;85;25501;-53
2024/01/03 04:49:15;;;;;;;25.12;15.50;;;;;;;2.89;100.00;98132.08;1617372;87;27386;-53
2024/01/03 04:51:42;;;;;;;26.90;15.72;;;;;;;2.91;100.00;98122.42;1670284;85;25584;-52
2024/01/03 04:54:08;;;;;;;24.90;15.75;;;;;;;2.91;100.00;98131.24;1643296;85;25510;-54
2024/01/03 04:56:35;;;;;;;22.50;14.45;;;;;;;2.92;100.00;98126.13;1621502;85;25575;-51
2024/01/03 04:59:03;;;;;;;26.17;16.07;;;;;;;2.92;100.00;98124.02;1670383;85;25451;-52
2024/01/03 05:01:29;;;;;;;25.48;15.05;;;;;;;2.92;100.00;98120.78;1670329;85;27357;-52
2024/01/03 05:03:56;;;;;;;22.93;14.73;;;;;;;2.92;100.00;98122.67;1670263;85;25410;-52
2024/01/03 05:06:22;;;;;;;23.38;14.05;;;;;;;2.92;100.00;98119.45;1670357;85;25473;-52
2024/01/03 05:08:48;;;;;;;26.07;15.35;;;;;;;2.92;100.00;98117.34;1643283;85;25568;-52
2024/01/03 05:11:15;;;;;;;24.50;15.53;;;;;;;2.90;100.00;98104.84;1643365;85;25499;-51
2024/01/03 05:13:41;;;;;;;27.73;16.25;;;;;;;2.90;100.00;98098.95;1643288;85;27350;-53
2024/01/03 05:16:08;;;;;;;25.62;15.72;;;;;;;2.93;100.00;98104.23;1670261;85;25589;-51
2024/01/03 05:18:34;;;;;;;23.92;14.53;;;;;;;2.94;100.00;98100.45;1670331;85;25427;-51
2024/01/03 05:21:00;;;;;;;27.25;15.25;;;;;;;2.93;100.00;98099.67;1670276;85;25612;-51
2024/01/03 05:23:26;;;;;;;27.17;14.83;;;;;;;2.92;100.00;98099.42;1670330;85;25478;-53
2024/01/03 05:25:52;;;;;;;25.00;15.70;;;;;;;2.93;100.00;98098.33;1662979;84;27267;-52
2024/01/03 05:28:19;;;;;;;24.90;14.85;;;;;;;2.95;100.00;98094.02;1637567;86;25525;-54
2024/01/03 05:30:45;;;;;;;25.60;16.75;;;;;;;2.98;100.00;98089.39;1644509;87;25469;-51
2024/01/03 05:33:12;;;;;;;24.18;15.00;;;;;;;2.96;100.00;98085.70;1644474;86;25553;-53
2024/01/03 05:35:38;;;;;;;23.85;14.40;;;;;;;2.97;100.00;98081.91;1662851;86;25418;-54
2024/01/03 05:38:05;;;;;;;25.23;14.90;;;;;;;2.95;100.00;98082.78;1593074;87;27953;-51
2024/01/03 05:40:31;;;;;;;23.52;14.78;;;;;;;2.95;100.00;98081.44;1639563;86;25524;-51
2024/01/03 05:42:57;;;;;;;23.15;14.40;;;;;;;2.97;100.00;98082.47;1636733;87;25500;-55
2024/01/03 05:45:23;;;;;;;23.00;13.40;;;;;;;2.96;100.00;98080.36;1662772;86;26111;-51
2024/01/03 05:47:50;;;;;;;25.40;14.07;;;;;;;2.97;100.00;98077.12;1614487;87;25533;-53
2024/01/03 05:50:17;;;;;;;20.40;13.55;;;;;;;2.97;100.00;98076.56;1639739;86;27296;-53
2024/01/03 05:52:44;;;;;;;24.18;13.62;;;;;;;2.96;100.00;98080.36;1636639;87;25709;-53
2024/01/03 05:55:10;;;;;;;22.37;13.35;;;;;;;2.96;100.00;98079.02;1639625;86;25562;-52
2024/01/03 05:57:37;;;;;;;20.68;13.08;;;;;;;2.96;100.00;98076.34;1636708;87;25780;-52
2024/01/03 06:00:05;;;;;;;19.52;12.85;;;;;;;2.97;100.00;98076.56;1639640;86;25450;-51
2024/01/03 06:02:32;;;;;;;21.57;13.22;;;;;;;2.96;100.00;98073.67;1636718;87;27363;-52
2024/01/03 06:04:58;;;;;;;20.62;13.00;;;;;;;2.96;100.00;98064.33;1639544;86;25462;-52
2024/01/03 06:07:24;;;;;;;21.25;13.05;;;;;;;2.96;100.00;98068.34;1614133;87;25468;-52
2024/01/03 06:09:50;;;;;;;22.52;13.22;;;;;;;2.97;100.00;98063.22;1662774;86;26268;-52
2024/01/03 06:12:17;;;;;;;21.65;13.40;;;;;;;2.98;100.00;98069.36;1636748;87;25487;-52
2024/01/03 06:14:43;;;;;;;24.98;13.88;;;;;;;3.00;100.00;98069.83;1662801;86;27275;-55
2024/01/03 06:17:09;;;;;;;19.45;12.75;;;;;;;2.99;100.00;98062.34;1636450;87;25451;-55
2024/01/03 06:19:36;;;;;;;22.22;13.85;;;;;;;3.03;100.00;98064.39;1662805;86;25505;-52
2024/01/03 06:22:02;;;;;;;24.15;13.83;;;;;;;3.02;100.00;98059.61;1636689;87;26238;-51
2024/01/03 06:24:29;;;;;;;23.05;14.10;;;;;;;3.03;100.00;98059.86;1662780;84;25471;-51
2024/01/03 06:26:55;;;;;;;21.25;13.83;;;;;;;3.07;100.00;98060.02;1614219;87;27408;-51
2024/01/03 06:29:22;;;;;;;23.05;13.80;;;;;;;3.07;100.00;98057.34;1639516;86;25444;-51
2024/01/03 06:31:48;;;;;;;23.25;13.88;;;;;;;3.06;100.00;98047.75;1636690;87;25512;-53
2024/01/03 06:34:15;;;;;;;23.12;14.58;;;;;;;3.06;100.00;98049.09;1662779;86;26177;-55
2024/01/03 06:36:41;;;;;;;24.98;14.65;;;;;;;3.09;100.00;98053.80;1611432;87;25465;-52
2024/01/03 06:39:07;;;;;;;23.90;14.25;;;;;;;3.08;100.00;98054.36;1611507;87;26977;-52
2024/01/03 06:41:33;;;;;;;25.72;14.70;;;;;;;3.08;100.00;98050.89;1621458;87;25514;-52
2024/01/03 06:44:00;;;;;;;23.92;13.53;;;;;;;3.07;100.00;98042.66;1662832;85;25442;-52
2024/01/03 06:46:27;;;;;;;23.73;14.03;;;;;;;3.07;100.00;98040.77;1632291;87;26325;-52
2024/01/03 06:48:57;;;;;;;24.20;13.70;;;;;;;3.09;100.00;98045.80;1637665;86;25465;-52
2024/01/03 06:51:23;;;;;;;24.15;14.90;;;;;;;3.09;100.00;98043.13;1644440;87;28064;-55
2024/01/03 06:53:50;;;;;;;30.90;16.00;;;;;;;3.11;100.00;98039.02;1644367;87;25426;-52
2024/01/03 06:56:24;;;;;;;22.45;14.33;;;;;;;3.12;100.00;98042.50;1662793;86;25410;-53
2024/01/03 06:58:51;;;;;;;24.20;14.33;;;;;;;3.10;100.00;98034.80;1632264;87;25620;-52
2024/01/03 07:01:18;;;;;;;23.80;14.38;;;;;;;3.11;100.00;98030.23;1621553;87;25457;-52
2024/01/03 07:03:44;;;;;;;24.18;14.85;;;;;;;3.13;100.00;98034.17;1639801;86;28114;-52
2024/01/03 07:06:11;;;;;;;23.85;15.55;;;;;;;3.14;100.00;98031.72;1614164;87;25445;-52
2024/01/03 07:08:37;;;;;;;25.77;14.13;;;;;;;3.15;100.00;98024.48;1639660;86;25445;-55
2024/01/03 07:11:03;;;;;;;22.17;13.53;;;;;;;3.15;100.00;98021.28;1636687;87;25621;-52
2024/01/03 07:13:30;;;;;;;22.42;13.28;;;;;;;3.16;100.00;98028.18;1662814;86;25422;-52
2024/01/03 07:15:56;;;;;;;22.02;13.03;;;;;;;3.16;100.00;98023.39;1636709;87;27323;-52
2024/01/03 07:18:22;;;;;;;22.98;13.58;;;;;;;3.15;100.00;98011.94;1639560;86;25708;-52
2024/01/03 07:20:49;;;;;;;21.27;14.18;;;;;;;3.17;100.00;98016.97;1613757;87;25547;-52
2024/01/03 07:23:15;;;;;;;24.52;14.95;;;;;;;3.20;100.00;98015.53;1662715;86;25556;-51
2024/01/03 07:25:42;;;;;;;26.93;15.75;;;;;;;3.20;100.00;98014.20;1616411;87;25453;-52
2024/01/03 07:28:08;;;;;;;28.90;16.10;;;;;;;3.23;100.00;98013.02;1670276;85;27323;-54
2024/01/03 07:30:35;;;;;;;25.20;15.18;;;;;;;3.24;100.00;98011.92;1670170;85;25397;-52
2024/01/03 07:33:02;;;;;;;25.15;16.23;;;;;;;3.26;100.00;98012.38;1643162;85;25485;-55
2024/01/03 07:35:28;;;;;;;26.02;16.50;;;;;;;3.28;100.00;98009.40;1670249;85;26311;-55
2024/01/03 07:37:55;;;;;;;29.82;17.00;;;;;;;3.29;100.00;98007.75;1670297;85;25495;-55
2024/01/03 07:40:21;;;;;;;26.93;16.65;;;;;;;3.29;100.00;98003.74;1643053;85;28018;-55
2024/01/03 07:42:48;;;;;;;24.92;16.70;;;;;;;3.31;100.00;97994.08;1670171;85;25158;-52
2024/01/03 07:45:14;;;;;;;26.50;16.27;;;;;;;3.32;100.00;98000.45;1670290;85;25440;-53
2024/01/03 07:47:40;;;;;;;26.90;17.10;;;;;;;3.33;100.00;97991.30;1617247;87;26341;-53
2024/01/03 07:50:08;;;;;;;28.75;17.27;;;;;;;3.37;100.00;97994.13;1670315;85;25420;-52
2024/01/03 07:52:34;;;;;;;29.60;17.45;;;;;;;3.37;100.00;97991.45;1670249;85;27342;-55
2024/01/03 07:55:00;;;;;;;29.45;18.17;;;;;;;3.39;100.00;97987.13;1670189;85;25479;-52
2024/01/03 07:57:26;;;;;;;28.30;16.62;;;;;;;3.41;100.00;97996.98;1643253;85;25474;-53
2024/01/03 07:59:54;;;;;;;28.32;17.70;;;;;;;3.39;100.00;97991.95;1670235;85;25635;-52
2024/01/03 08:02:20;;;;;;;29.05;17.85;;;;;;;3.43;100.00;97993.43;1643086;85;25435;-52
2024/01/03 08:04:47;;;;;;;27.07;16.65;;;;;;;3.42;100.00;97987.84;1670261;85;27367;-52
2024/01/03 08:07:13;;;;;;;26.77;16.87;;;;;;;3.40;100.00;97982.81;1670197;85;25589;-55
2024/01/03 08:09:39;;;;;;;29.30;16.97;;;;;;;3.42;100.00;97986.50;1670307;85;25443;-55
2024/01/03 08:12:08;;;;;;;25.45;16.12;;;;;;;3.43;100.00;97978.73;1643123;85;25711;-55
2024/01/03 08:14:37;;;;;;;26.37;16.77;;;;;;;3.43;100.00;97983.52;1670563;85;25414;-57
2024/01/03 08:17:04;;;;;;;33.90;18.87;;;;;;;3.47;100.00;97983.10;1670316;84;26880;-54
2024/01/03 08:19:30;;;;;;;28.12;17.42;;;;;;;3.48;100.00;97982.57;1670312;85;25481;-52
2024/01/03 08:21:57;;;;;;;27.65;17.20;;;;;;;3.50;100.00;97987.04;1670370;85;25434;-51
2024/01/03 08:24:24;;;;;;;29.42;19.00;;;;;;;3.49;100.00;97984.13;1670330;85;26273;-52
2024/01/03 08:26:50;;;;;;;25.90;17.30;;;;;;;3.51;100.00;97980.05;1687163;85;25493;-55
2024/01/03 08:29:17;;;;;;;36.20;17.15;;;;;;;3.52;100.00;97978.15;1687548;85;28153;-52
2024/01/03 08:31:43;;;;;;;27.82;17.87;;;;;;;3.54;100.00;97978.61;1687488;85;25718;-55
2024/01/03 08:34:09;;;;;;;28.30;18.20;;;;;;;3.53;100.00;97970.38;1687568;85;25443;-55
2024/01/03 08:36:42;;;;;;;31.52;19.05;;;;;;;3.52;100.00;97972.27;1687531;84;25617;-52
2024/01/03 08:39:09;;;;;;;31.73;18.45;;;;;;;3.53;100.00;97975.16;1686555;85;25532;-54
2024/01/03 08:41:36;;;;;;;28.12;18.20;;;;;;;3.54;100.00;97968.72;1687513;84;28107;-54
2024/01/03 08:44:05;;;;;;;31.90;18.23;;;;;;;3.56;100.00;97977.77;1687464;85;25456;-55
2024/01/03 08:46:34;;;;;;;27.75;18.05;;;;;;;3.59;100.00;97974.98;1687689;85;25491;-53
2024/01/03 08:49:03;;;;;;;26.12;17.40;;;;;;;3.60;100.00;97972.56;1687508;85;25627;-56
2024/01/03 08:51:29;;;;;;;28.90;17.87;;;;;;;3.60;100.00;97967.22;1664237;85;25516;-53
2024/01/03 08:53:56;;;;;;;27.10;17.37;;;;;;;3.60;100.00;97959.19;1687627;85;28092;-52
2024/01/03 08:56:22;;;;;;;28.07;17.37;;;;;;;3.63;100.00;97962.57;1687505;85;25518;-55
2024/01/03 08:58:49;;;;;;;29.40;18.92;;;;;;;3.65;100.00;97958.45;1687567;84;25437;-55
2024/01/03 09:01:23;;;;;;;28.95;18.23;;;;;;;3.66;100.00;97956.03;1687521;84;25557;-55
2024/01/03 09:03:50;;;;;;;31.20;18.87;;;;;;;3.69;100.00;97958.04;1687585;85;25071;-55
2024/01/03 09:06:22;;;;;;;31.33;19.32;;;;;;;3.72;100.00;97964.09;1663705;85;27368;-55
2024/01/03 09:08:54;;;;;;;38.92;21.37;;;;;;;3.74;100.00;97961.09;1663623;85;25541;-55
2024/01/03 09:11:25;;;;;;;30.23;19.30;;;;;;;3.77;100.00;97960.46;1687646;85;25442;-55
2024/01/03 09:13:52;;;;;;;30.77;18.95;;;;;;;3.79;100.00;97960.14;1663712;85;26298;-54
2024/01/03 09:16:22;;;;;;;32.58;19.85;;;;;;;3.79;100.00;97960.14;1687715;85;25475;-55
2024/01/03 09:18:49;;;;;;;30.82;19.23;;;;;;;3.81;100.00;97958.70;1687562;84;27402;-56
2024/01/03 09:21:16;;;;;;;32.80;19.57;;;;;;;3.84;100.00;97953.28;1687497;85;25404;-55
2024/01/03 09:23:42;;;;;;;33.53;19.30;;;;;;;3.88;100.00;97951.52;1663568;85;25453;-55
2024/01/03 09:26:10;;;;;;;31.10;19.73;;;;;;;3.91;100.00;97944.20;1687472;84;25703;-55
2024/01/03 09:28:38;;;;;;;31.40;19.52;;;;;;;3.94;100.00;97950.25;1687586;85;25427;-54
2024/01/03 09:31:06;;;;;;;31.73;19.70;;;;;;;3.96;100.00;97948.03;1663942;85;27352;-55
2024/01/03 09:33:33;;;;;;;35.63;19.42;;;;;;;3.93;100.00;97949.47;1686861;84;25516;-54
2024/01/03 09:36:00;;;;;;;27.77;18.37;;;;;;;3.97;100.00;97941.58;1687106;85;25621;-56
2024/01/03 09:38:26;;;;;;;29.55;19.67;;;;;;;3.97;100.00;97946.13;1663434;85;26173;-56
2024/01/03 09:40:53;;;;;;;30.43;19.27;;;;;;;3.99;100.00;97944.71;1663710;85;25495;-53
2024/01/03 09:43:20;;;;;;;29.50;18.05;;;;;;;4.01;100.00;97939.82;1663698;85;26861;-56
2024/01/03 09:45:47;;;;;;;29.67;18.65;;;;;;;4.00;100.00;97931.58;1687400;85;25481;-56
2024/01/03 09:48:13;;;;;;;29.57;17.40;;;;;;;4.02;100.00;97931.23;1687482;85;25431;-56
2024/01/03 09:50:40;;;;;;;28.45;19.07;;;;;;;4.05;100.00;97930.59;1687436;85;26146;-56
2024/01/03 09:53:08;;;;;;;32.85;19.52;;;;;;;4.05;100.00;97929.25;1640132;85;25489;-54
2024/01/03 09:55:35;;;;;;;28.38;18.62;;;;;;;4.07;100.00;97928.37;1687727;85;27351;-56
2024/01/03 09:58:01;;;;;;;30.32;17.75;;;;;;;4.06;100.00;97927.59;1687367;85;25428;-57
2024/01/03 10:00:31;;;;;;;27.85;18.15;;;;;;;4.06;100.00;97922.25;1663699;85;25439;-53
2024/01/03 10:03:04;;;;;;;27.13;17.73;;;;;;;4.10;100.00;97927.20;1640591;85;25787;-53
2024/01/03 10:05:30;;;;;;;28.57;17.23;;;;;;;4.11;100.00;97926.07;1687530;84;25395;-55
2024/01/03 10:07:57;;;;;;;27.37;18.32;;;;;;;4.11;100.00;97920.72;1663578;85;27163;-57
2024/01/03 10:10:33;;;;;;;27.80;18.52;;;;;;;4.14;100.00;97917.16;1687392;85;25474;-55
2024/01/03 10:13:18;;;;;;;31.95;19.42;;;;;;;4.17;100.00;97919.20;1687448;85;25427;-55
2024/01/03 10:15:45;;;;;;;31.87;19.37;;;;;;;4.15;100.00;97916.06;1687427;85;25634;-54
2024/01/03 10:18:17;;;;;;;32.10;19.77;;;;;;;4.18;100.00;97923.45;1687496;84;25528;-54
2024/01/03 10:20:43;;;;;;;34.73;20.60;;;;;;;4.19;100.00;97920.45;1687484;84;27356;-53
2024/01/03 10:23:16;;;;;;;33.18;20.48;;;;;;;4.19;100.00;97920.98;1687346;85;25503;-55
2024/01/03 10:25:44;;;;;;;31.87;20.08;;;;;;;4.22;100.00;97920.34;1682967;85;25429;-55
2024/01/03 10:28:17;;;;;;;31.15;19.10;;;;;;;4.23;100.00;97918.69;1670253;85;25680;-53
2024/01/03 10:30:57;;;;;;;31.35;18.73;;;;;;;4.23;100.00;97910.66;1670323;85;25482;-54
2024/01/03 10:33:21;;;;;;;28.50;18.80;;;;;;;4.27;100.00;97914.80;1669417;85;27288;-56
2024/01/03 10:35:47;;;;;;;29.60;17.95;;;;;;;4.29;100.00;97912.05;1643158;85;25741;-54
2024/01/03 10:38:16;;;;;;;29.37;18.45;;;;;;;4.32;100.00;97908.48;1643179;85;25529;-53
2024/01/03 10:40:44;;;;;;;28.67;17.98;;;;;;;4.32;100.00;97901.23;1643747;85;26265;-56
2024/01/03 10:43:11;;;;;;;29.87;17.73;;;;;;;4.35;100.00;97905.94;1670271;85;25448;-55
2024/01/03 10:45:37;;;;;;;29.12;18.52;;;;;;;4.36;100.00;97902.16;1621712;85;27507;-56
2024/01/03 10:48:04;;;;;;;28.90;18.02;;;;;;;4.38;100.00;97899.94;1670186;85;25553;-56
2024/01/03 10:50:31;;;;;;;29.18;17.80;;;;;;;4.39;100.00;97892.15;1663548;85;25526;-53
2024/01/03 10:52:58;;;;;;;30.30;19.00;;;;;;;4.38;100.00;97896.48;1689378;85;25595;-56
2024/01/03 10:55:35;;;;;;;27.55;18.57;;;;;;;4.40;100.00;97891.02;1689437;85;25463;-55
2024/01/03 10:58:14;;;;;;;28.45;17.60;;;;;;;4.39;100.00;97887.33;1663296;85;27313;-55
2024/01/03 11:00:58;;;;;;;30.17;18.25;;;;;;;4.43;100.00;97886.92;1689551;85;25568;-56
2024/01/03 11:03:41;;;;;;;31.45;19.48;;;;;;;4.42;100.00;97880.77;1689388;84;25870;-57
2024/01/03 11:06:19;;;;;;;34.58;19.80;;;;;;;4.45;100.00;97877.44;1689377;85;25455;-55
2024/01/03 11:08:55;;;;;;;34.05;19.87;;;;;;;4.46;100.00;97871.52;1689438;85;25483;-56
2024/01/03 11:11:35;;;;;;;34.58;20.75;;;;;;;4.48;100.00;97868.77;1663655;85;27402;-56
2024/01/03 11:14:20;;;;;;;31.68;20.35;;;;;;;4.50;100.00;97872.45;1662630;85;25513;-56
2024/01/03 11:16:47;;;;;;;34.70;19.98;;;;;;;4.52;100.00;97867.55;1689451;84;25410;-58
2024/01/03 11:19:14;;;;;;;33.13;19.85;;;;;;;4.50;100.00;97860.41;1689385;85;25616;-56